createdAt,value
2022-09-05T00:03:08.780Z,7.20
2022-09-05T00:06:13.805Z,7.60
2022-09-05T00:09:20.081Z,7.20
2022-09-05T00:12:16.969Z,7.40
2022-09-05T00:15:27.296Z,7.30
2022-09-05T00:23:07.541Z,7.20
2022-09-05T00:24:36.620Z,7.40
2022-09-05T00:26:14.246Z,7.30
2022-09-05T00:31:07.325Z,7.50
2022-09-05T00:33:17.864Z,7.40
2022-09-05T00:36:38.621Z,8.00
2022-09-05T00:39:38.835Z,7.30
2022-09-05T00:42:32.833Z,7.90
2022-09-05T00:45:38.377Z,8.90
2022-09-05T00:48:48.673Z,8.70
2022-09-05T00:51:56.514Z,7.60
2022-09-05T00:55:20.527Z,8.00
2022-09-05T00:58:58.838Z,7.80
2022-09-05T01:02:05.773Z,6.80
2022-09-05T01:05:11.298Z,7.40
2022-09-05T01:08:38.003Z,7.50
2022-09-05T01:11:53.629Z,7.60
2022-09-05T01:15:19.406Z,7.50
2022-09-05T01:18:41.074Z,7.90
2022-09-05T01:22:33.511Z,7.80
2022-09-05T01:25:55.332Z,7.40
2022-09-05T01:29:18.004Z,7.80
2022-09-05T01:32:35.599Z,8.10
2022-09-05T01:36:27.375Z,7.70
2022-09-05T01:40:15.139Z,8.10
2022-09-05T01:43:25.751Z,7.50
2022-09-05T01:46:41.244Z,8.30
2022-09-05T01:50:01.122Z,8.00
2022-09-05T01:53:26.577Z,7.80
2022-09-05T01:56:49.167Z,8.30
2022-09-05T01:59:55.894Z,8.10
2022-09-05T02:03:14.501Z,8.20
2022-09-05T02:06:36.167Z,8.40
2022-09-05T02:10:07.076Z,8.60
2022-09-05T02:13:20.714Z,8.90
2022-09-05T02:16:30.005Z,9.60
2022-09-05T02:19:32.433Z,9.20
2022-09-05T02:22:42.892Z,9.00
2022-09-05T02:26:01.463Z,8.80
2022-09-05T02:29:04.213Z,10.10
2022-09-05T02:32:10.145Z,9.80
2022-09-05T02:35:20.282Z,9.10
2022-09-05T02:41:24.509Z,9.30
2022-09-05T02:45:21.829Z,9.20
2022-09-05T02:45:28.296Z,9.30
2022-09-05T02:48:33.797Z,9.20
2022-09-05T02:57:24.468Z,9.50
2022-09-05T02:57:33.654Z,9.10
2022-09-05T02:59:09.109Z,9.00
2022-09-05T03:02:25.227Z,9.00
2022-09-05T03:05:30.462Z,8.90
2022-09-05T03:09:23.278Z,9.00
2022-09-05T03:16:47.479Z,8.80
2022-09-05T03:20:53.227Z,9.40
2022-09-05T03:25:10.122Z,9.00
2022-09-05T03:29:14.642Z,9.70
2022-09-05T03:33:09.739Z,9.10
2022-09-05T03:37:01.872Z,9.40
2022-09-05T03:40:40.440Z,9.30
2022-09-05T03:44:17.748Z,9.60
2022-09-05T03:47:51.016Z,9.90
2022-09-05T03:57:05.936Z,9.60
2022-09-05T03:57:15.450Z,10.50
2022-09-05T03:59:31.656Z,10.00
2022-09-05T04:06:58.319Z,10.10
2022-09-05T04:08:18.072Z,9.80
2022-09-05T04:09:48.999Z,9.80
2022-09-05T04:12:48.396Z,10.90
2022-09-05T04:15:53.496Z,10.80
2022-09-05T04:18:54.794Z,10.10
2022-09-05T04:22:08.241Z,9.60
2022-09-05T04:25:16.490Z,9.90
2022-09-05T04:28:42.946Z,17.30
2022-09-05T04:32:18.222Z,12.90
2022-09-05T04:35:39.212Z,26.60
2022-09-05T04:38:45.624Z,20.70
2022-09-05T04:41:47.933Z,10.50
2022-09-05T04:44:50.032Z,9.40
2022-09-05T04:47:56.899Z,8.90
2022-09-05T04:52:00.355Z,9.20
2022-09-05T04:55:01.478Z,11.20
2022-09-05T04:58:05.482Z,9.70
2022-09-05T05:06:05.153Z,8.00
2022-09-05T05:06:13.318Z,7.00
2022-09-05T05:07:57.717Z,6.90
2022-09-05T05:17:20.933Z,6.80
2022-09-05T05:18:03.358Z,6.30
2022-09-05T05:18:06.724Z,6.20
2022-09-05T05:21:14.928Z,6.20
2022-09-05T05:24:21.932Z,6.00
2022-09-05T05:27:38.994Z,6.00
2022-09-05T05:30:36.146Z,5.50
2022-09-05T05:33:36.158Z,5.80
2022-09-05T05:36:37.493Z,6.30
2022-09-05T05:39:34.392Z,5.80
2022-09-05T05:42:28.969Z,5.70
2022-09-05T05:45:28.786Z,5.90
2022-09-05T05:48:39.718Z,6.30
2022-09-05T05:52:02.648Z,6.00
2022-09-05T05:55:09.721Z,6.60
2022-09-05T05:58:53.501Z,6.20
2022-09-05T06:03:25.271Z,5.80
2022-09-05T06:06:55.381Z,5.70
2022-09-05T06:14:49.920Z,6.20
2022-09-05T06:15:02.808Z,6.10
2022-09-05T06:18:46.340Z,6.60
2022-09-05T06:22:35.961Z,6.20
2022-09-05T06:26:19.621Z,6.20
2022-09-05T06:29:38.105Z,6.30
2022-09-05T06:33:16.784Z,5.90
2022-09-05T06:36:34.051Z,6.50
2022-09-05T06:39:58.627Z,6.70
2022-09-05T06:43:18.955Z,6.70
2022-09-05T06:46:54.521Z,6.10
2022-09-05T06:50:23.985Z,6.50
2022-09-05T06:54:05.845Z,6.10
2022-09-05T06:57:43.947Z,5.80
2022-09-05T07:00:48.805Z,5.60
2022-09-05T07:05:23.154Z,5.80
2022-09-05T07:07:43.781Z,5.10
2022-09-05T07:10:48.994Z,4.90
2022-09-05T07:13:56.006Z,5.80
2022-09-05T07:16:55.411Z,5.00
2022-09-05T07:20:00.931Z,5.30
2022-09-05T07:23:47.826Z,5.50
2022-09-05T07:26:42.090Z,5.10
2022-09-05T07:29:52.407Z,5.30
2022-09-05T07:32:58.230Z,5.80
2022-09-05T07:35:55.845Z,5.50
2022-09-05T07:39:07.031Z,5.70
2022-09-05T07:42:13.615Z,5.90
2022-09-05T07:45:14.234Z,5.90
2022-09-05T07:48:14.592Z,5.00
2022-09-05T07:55:46.397Z,5.60
2022-09-05T07:57:01.328Z,4.80
2022-09-05T08:00:54.718Z,5.10
2022-09-05T08:03:55.735Z,5.40
2022-09-05T08:07:46.139Z,5.10
2022-09-05T08:10:16.082Z,4.60
2022-09-05T08:13:24.426Z,4.10
2022-09-05T08:19:57.852Z,4.00
2022-09-05T08:23:18.353Z,4.30
2022-09-05T08:26:20.066Z,4.10
2022-09-05T08:29:31.079Z,4.30
2022-09-05T08:32:39.292Z,4.10
2022-09-05T08:35:40.205Z,4.10
2022-09-05T08:38:41.231Z,4.30
2022-09-05T08:42:05.532Z,3.70
2022-09-05T08:46:35.891Z,4.30
2022-09-05T08:48:58.234Z,3.50
2022-09-05T08:52:08.786Z,4.00
2022-09-05T08:55:21.102Z,3.90
2022-09-05T08:59:27.506Z,4.00
2022-09-05T09:03:05.017Z,4.10
2022-09-05T09:07:00.819Z,3.90
2022-09-05T09:10:29.197Z,4.20
2022-09-05T09:13:54.566Z,4.40
2022-09-05T09:17:06.871Z,4.20
2022-09-05T09:20:23.218Z,4.50
2022-09-05T09:23:42.411Z,4.20
2022-09-05T09:26:52.520Z,4.30
2022-09-05T09:29:47.166Z,4.30
2022-09-05T09:32:50.221Z,4.40
2022-09-05T09:35:55.288Z,4.40
2022-09-05T09:39:37.541Z,4.30
2022-09-05T09:42:51.028Z,4.20
2022-09-05T09:46:21.264Z,4.20
2022-09-05T09:50:14.721Z,4.40
2022-09-05T09:53:45.848Z,4.10
2022-09-05T09:57:41.705Z,4.00
2022-09-05T10:00:51.417Z,4.20
2022-09-05T10:10:35.743Z,4.00
2022-09-05T10:10:53.064Z,4.20
2022-09-05T10:11:54.913Z,4.70
2022-09-05T10:15:31.230Z,4.10
2022-09-05T10:18:56.248Z,4.60
2022-09-05T10:22:36.587Z,4.20
2022-09-05T10:26:18.266Z,4.40
2022-09-05T10:29:38.063Z,4.20
2022-09-05T10:35:11.824Z,4.30
2022-09-05T10:36:31.482Z,3.90
2022-09-05T10:39:29.467Z,3.70
2022-09-05T10:42:39.857Z,3.40
2022-09-05T10:45:57.016Z,3.90
2022-09-05T10:48:56.134Z,3.70
2022-09-05T10:51:58.330Z,4.20
2022-09-05T10:55:26.299Z,4.30
2022-09-05T11:01:33.404Z,3.90
2022-09-05T11:02:28.148Z,3.50
2022-09-05T11:05:32.067Z,3.60
2022-09-05T11:08:38.176Z,3.60
2022-09-05T11:11:46.276Z,3.80
2022-09-05T11:14:54.064Z,4.50
2022-09-05T11:17:58.917Z,4.10
2022-09-05T11:21:10.414Z,4.10
2022-09-05T11:24:27.361Z,4.20
2022-09-05T11:27:36.130Z,4.10
2022-09-05T11:30:40.654Z,3.80
2022-09-05T11:40:00.190Z,4.30
2022-09-05T11:40:02.466Z,3.60
2022-09-05T11:45:52.303Z,3.50
2022-09-05T11:49:43.043Z,4.00
2022-09-05T11:53:45.755Z,3.80
2022-09-05T11:57:38.813Z,3.90
2022-09-05T12:00:45.136Z,4.10
2022-09-05T12:04:15.918Z,3.60
2022-09-05T12:07:44.705Z,3.70
2022-09-05T12:11:01.514Z,3.30
2022-09-05T12:14:13.983Z,3.60
2022-09-05T12:17:35.329Z,3.60
2022-09-05T12:20:46.643Z,3.50
2022-09-05T12:25:16.690Z,3.80
2022-09-05T12:27:41.088Z,3.30
2022-09-05T12:30:55.094Z,3.60
2022-09-05T12:36:13.057Z,3.70
2022-09-05T12:40:43.570Z,3.70
2022-09-05T12:41:36.874Z,3.20
2022-09-05T12:44:42.286Z,3.40
2022-09-05T12:47:32.691Z,4.60
2022-09-05T12:50:40.770Z,3.50
2022-09-05T12:53:49.475Z,3.60
2022-09-05T13:00:58.613Z,3.70
2022-09-05T13:03:02.327Z,3.80
2022-09-05T13:04:15.745Z,3.30
2022-09-05T13:07:10.050Z,4.60
2022-09-05T13:13:02.563Z,3.60
2022-09-05T13:14:58.634Z,3.40
2022-09-05T13:16:53.641Z,3.20
2022-09-05T13:19:52.514Z,3.30
2022-09-05T13:22:50.564Z,3.50
2022-09-05T13:25:56.478Z,3.40
2022-09-05T13:29:03.958Z,3.60
2022-09-05T13:38:05.629Z,3.70
2022-09-05T13:38:08.055Z,3.40
2022-09-05T13:39:09.787Z,3.50
2022-09-05T13:42:06.151Z,3.40
2022-09-05T13:45:03.017Z,3.60
2022-09-05T13:51:59.725Z,3.50
2022-09-05T13:55:05.142Z,3.50
2022-09-05T13:58:07.573Z,3.30
2022-09-05T14:02:24.672Z,3.30
2022-09-05T14:05:33.727Z,3.40
2022-09-05T14:12:39.554Z,3.20
2022-09-05T14:15:43.663Z,3.00
2022-09-05T14:18:58.415Z,3.40
2022-09-05T14:21:52.679Z,3.30
2022-09-05T14:24:58.348Z,3.00
2022-09-05T14:27:54.830Z,3.40
2022-09-05T14:33:11.046Z,3.00
2022-09-05T14:37:49.994Z,3.30
2022-09-05T14:41:35.882Z,3.30
2022-09-05T14:44:54.472Z,3.40
2022-09-05T14:48:34.484Z,3.00
2022-09-05T14:51:26.222Z,3.10
2022-09-05T15:00:25.562Z,3.50
2022-09-05T15:02:41.493Z,2.90
2022-09-05T15:03:21.125Z,3.10
2022-09-05T15:05:57.923Z,3.00
2022-09-05T15:11:23.862Z,2.90
2022-09-05T15:12:21.806Z,3.10
2022-09-05T15:14:29.325Z,2.90
2022-09-05T15:17:08.523Z,3.00
2022-09-05T15:20:06.356Z,3.50
2022-09-05T15:22:57.394Z,3.40
2022-09-05T15:25:46.490Z,3.20
2022-09-05T15:28:41.758Z,3.20
2022-09-05T15:31:28.920Z,3.50
2022-09-05T15:34:29.614Z,3.40
2022-09-05T15:37:22.360Z,3.30
2022-09-05T15:40:24.061Z,3.30
2022-09-05T15:45:40.735Z,3.50
2022-09-05T15:48:34.817Z,3.40
2022-09-05T15:51:42.876Z,3.40
2022-09-05T15:54:37.984Z,3.30
2022-09-05T15:57:23.395Z,3.60
2022-09-05T16:00:05.094Z,3.30
2022-09-05T16:10:29.368Z,3.50
2022-09-05T16:10:38.522Z,3.30
2022-09-05T16:15:48.001Z,3.40
2022-09-05T16:23:14.121Z,3.50
2022-09-05T16:23:24.778Z,3.20
2022-09-05T16:24:05.286Z,3.00
2022-09-05T16:26:52.279Z,3.30
2022-09-05T16:29:32.245Z,3.40
2022-09-05T16:32:25.178Z,3.40
2022-09-05T16:35:07.324Z,3.50
2022-09-05T16:37:50.630Z,3.50
2022-09-05T16:40:33.263Z,3.50
2022-09-05T16:43:19.972Z,3.50
2022-09-05T16:46:08.419Z,3.20
2022-09-05T16:48:55.322Z,3.50
2022-09-05T16:51:39.832Z,3.70
2022-09-05T16:54:29.877Z,4.50
2022-09-05T16:57:10.061Z,4.20
2022-09-05T16:59:49.904Z,3.40
2022-09-05T17:02:43.337Z,4.90
2022-09-05T17:05:37.610Z,3.50
2022-09-05T17:08:25.017Z,3.60
2022-09-05T17:11:13.818Z,3.80
2022-09-05T17:14:22.471Z,3.90
2022-09-05T17:17:36.121Z,3.70
2022-09-05T17:20:07.183Z,3.60
2022-09-05T17:29:20.234Z,4.10
2022-09-05T17:29:27.751Z,3.80
2022-09-05T17:31:26.537Z,4.00
2022-09-05T17:32:51.599Z,3.90
2022-09-05T17:36:00.846Z,4.10
2022-09-05T17:39:15.906Z,4.60
2022-09-05T17:42:13.547Z,4.50
2022-09-05T17:45:11.041Z,5.70
2022-09-05T17:47:53.973Z,6.90
2022-09-05T17:50:54.171Z,6.10
2022-09-05T17:53:33.478Z,6.00
2022-09-05T17:56:37.630Z,6.90
2022-09-05T17:59:31.517Z,5.90
2022-09-05T18:02:53.117Z,6.60
2022-09-05T18:06:33.238Z,5.60
2022-09-05T18:09:33.549Z,5.30
2022-09-05T18:13:13.121Z,5.70
2022-09-05T18:16:30.886Z,6.90
2022-09-05T18:20:06.562Z,5.80
2022-09-05T18:26:00.226Z,5.50
2022-09-05T18:28:54.637Z,5.50
2022-09-05T18:32:10.460Z,6.10
2022-09-05T18:35:27.931Z,6.30
2022-09-05T18:38:51.029Z,6.00
2022-09-05T18:41:28.273Z,6.30
2022-09-05T18:44:20.540Z,5.80
2022-09-05T18:47:01.949Z,5.70
2022-09-05T18:50:25.215Z,6.00
2022-09-05T18:52:48.826Z,5.70
2022-09-05T18:56:09.629Z,5.70
2022-09-05T18:58:34.444Z,5.70
2022-09-05T19:01:40.454Z,5.70
2022-09-05T19:04:39.280Z,5.00
2022-09-05T19:07:27.367Z,5.10
2022-09-05T19:10:33.935Z,5.00
2022-09-05T19:13:19.816Z,5.30
2022-09-05T19:16:36.163Z,5.80
2022-09-05T19:19:24.560Z,5.00
2022-09-05T19:23:08.366Z,4.60
2022-09-05T19:25:01.454Z,4.80
2022-09-05T19:34:05.835Z,4.90
2022-09-05T19:36:51.020Z,5.10
2022-09-05T19:36:51.696Z,4.50
2022-09-05T19:37:24.275Z,4.80
2022-09-05T19:44:38.994Z,5.00
2022-09-05T19:47:28.900Z,5.20
2022-09-05T19:47:40.835Z,4.70
2022-09-05T19:49:14.380Z,4.90
2022-09-05T19:51:52.076Z,4.80
2022-09-05T19:54:36.260Z,4.70
2022-09-05T19:57:20.867Z,4.70
2022-09-05T20:00:05.714Z,4.10
2022-09-05T20:02:56.942Z,4.30
2022-09-05T20:05:33.982Z,4.50
2022-09-05T20:08:16.619Z,4.00
2022-09-05T20:11:06.196Z,4.20
2022-09-05T20:13:42.715Z,4.20
2022-09-05T20:16:28.263Z,4.10
2022-09-05T20:19:06.783Z,4.30
2022-09-05T20:21:42.756Z,3.90
2022-09-05T20:24:19.877Z,3.90
2022-09-05T20:26:57.509Z,3.70
2022-09-05T20:29:54.744Z,4.20
2022-09-05T20:32:40.454Z,3.80
2022-09-05T20:39:07.085Z,3.80
2022-09-05T20:43:11.062Z,3.70
2022-09-05T20:43:29.712Z,3.70
2022-09-05T20:44:42.541Z,3.90
2022-09-05T20:54:12.793Z,3.30
2022-09-05T20:54:13.918Z,3.20
2022-09-05T20:54:17.299Z,3.40
2022-09-05T20:56:34.911Z,3.40
2022-09-05T20:59:22.196Z,3.00
2022-09-05T21:02:19.912Z,3.20
2022-09-05T21:05:21.140Z,3.30
2022-09-05T21:08:32.612Z,2.60
2022-09-05T21:11:10.589Z,3.40
2022-09-05T21:13:58.270Z,2.90
2022-09-05T21:16:40.111Z,2.90
2022-09-05T21:22:25.942Z,2.60
2022-09-05T21:25:42.225Z,2.90
2022-09-05T21:28:37.346Z,3.00
2022-09-05T21:31:20.770Z,2.60
2022-09-05T21:34:02.993Z,2.60
2022-09-05T21:36:41.349Z,2.90
2022-09-05T21:39:18.251Z,2.50
2022-09-05T21:42:05.050Z,2.70
2022-09-05T21:47:43.877Z,2.80
2022-09-05T21:47:53.073Z,2.70
2022-09-05T21:50:33.354Z,2.70
2022-09-05T21:59:14.385Z,2.80
2022-09-05T21:59:28.692Z,2.80
2022-09-05T21:59:36.814Z,2.90
2022-09-05T22:02:17.436Z,3.00
2022-09-05T22:05:02.791Z,2.60
2022-09-05T22:07:39.538Z,2.80
2022-09-05T22:10:17.193Z,3.20
2022-09-05T22:12:53.571Z,2.90
2022-09-05T22:15:32.337Z,2.60
2022-09-05T22:18:17.384Z,3.00
2022-09-05T22:21:33.142Z,3.00
2022-09-05T22:23:59.979Z,2.70
2022-09-05T22:27:06.290Z,3.20
2022-09-05T22:29:40.189Z,2.80
2022-09-05T22:32:17.143Z,2.50
2022-09-05T22:35:27.996Z,2.70
2022-09-05T22:38:12.436Z,2.60
2022-09-05T22:40:50.717Z,3.20
2022-09-05T22:43:27.103Z,2.80
2022-09-05T22:46:03.764Z,2.60
2022-09-05T22:48:41.207Z,2.40
2022-09-05T22:51:18.114Z,2.70
2022-09-05T22:53:54.024Z,2.70
2022-09-05T22:56:39.209Z,2.80
2022-09-05T22:59:17.122Z,2.80
2022-09-05T23:01:54.259Z,2.90
2022-09-05T23:04:30.156Z,2.60
2022-09-05T23:07:08.420Z,3.00
2022-09-05T23:09:44.785Z,2.60
2022-09-05T23:12:20.747Z,2.70
2022-09-05T23:14:56.727Z,2.50
2022-09-05T23:17:32.758Z,2.70
2022-09-05T23:20:11.617Z,2.50
2022-09-05T23:22:47.559Z,2.70
2022-09-05T23:25:24.461Z,2.40
2022-09-05T23:28:00.720Z,2.60
2022-09-05T23:30:37.530Z,2.50
2022-09-05T23:33:14.373Z,2.40
2022-09-05T23:35:50.465Z,2.40
2022-09-05T23:38:26.486Z,2.60
2022-09-05T23:41:08.384Z,2.50
2022-09-05T23:43:44.584Z,2.50
2022-09-05T23:46:20.483Z,2.80
2022-09-05T23:48:56.424Z,2.70
2022-09-05T23:51:32.348Z,2.60
2022-09-05T23:54:08.272Z,2.80
2022-09-05T23:56:44.122Z,2.60
2022-09-05T23:59:20.134Z,2.70
